Time;durP1;ratioP1;P1;durP2;ratioP2;P2;SDS_P1;SDS_P2;PMS_P1;PMS_P2;Temp;Humidity;BMP_temperature;BMP_pressure;BME280_temperature;BME280_humidity;BME280_pressure;Samples;Min_cycle;Max_cycle;Signal;HPM_P1;HPM_P2
2022/08/08 00:00:12;;;;;;;4.45;1.65;;;;;;;18.71;56.93;102095.34;5005966;28;20050;-41
2022/08/08 00:03:16;;;;;;;3.58;1.27;;;;;;;18.64;57.15;102094.34;5001569;28;20056;-41
2022/08/08 00:06:18;;;;;;;8.18;1.48;;;;;;;18.62;57.04;102099.53;4997290;28;20038;-42
2022/08/08 00:09:25;;;;;;;4.32;1.50;;;;;;;18.66;57.20;102098.44;5008206;28;20050;-42
2022/08/08 00:12:02;;;;;;;2.83;1.42;;;;;;;18.70;57.26;102095.69;5001267;28;20050;-41
2022/08/08 00:15:06;;;;;;;3.38;1.67;;;;;;;18.59;57.54;102103.88;5002484;28;20069;-46
2022/08/08 00:17:48;;;;;;;6.28;1.70;;;;;;;18.47;57.79;102101.22;5007098;28;20121;-41
2022/08/08 00:20:49;;;;;;;2.63;1.40;;;;;;;18.41;57.91;102102.63;5001771;28;20050;-43
2022/08/08 00:23:54;;;;;;;4.50;1.58;;;;;;;18.37;58.43;102106.53;4996406;28;20129;-44
2022/08/08 00:26:33;;;;;;;6.20;2.03;;;;;;;18.32;58.49;102104.81;4997171;28;20046;-48
2022/08/08 00:29:12;;;;;;;2.97;1.55;;;;;;;18.31;58.29;102108.00;5021659;28;20058;-51
2022/08/08 00:32:07;;;;;;;6.47;1.83;;;;;;;18.25;58.66;102104.66;4998835;28;20054;-42
2022/08/08 00:38:00;;;;;;;6.00;1.60;;;;;;;18.13;58.85;102107.56;5000715;28;20050;-41
2022/08/08 00:40:28;;;;;;;10.60;3.15;;;;;;;18.15;58.62;102105.22;5031936;28;20043;-41
2022/08/08 00:43:42;;;;;;;6.93;1.60;;;;;;;18.05;59.13;102112.19;5004012;28;20041;-46
2022/08/08 00:46:11;;;;;;;3.75;1.92;;;;;;;18.08;58.82;102107.84;5002926;28;20049;-46
2022/08/08 00:49:00;;;;;;;4.03;1.40;;;;;;;18.07;58.94;102109.03;5007784;28;20053;-41
2022/08/08 00:52:22;;;;;;;6.95;2.20;;;;;;;18.04;59.00;102115.34;5001406;28;20050;-45
2022/08/08 00:55:14;;;;;;;3.70;1.75;;;;;;;17.90;59.21;102103.78;4983333;28;20074;-43
2022/08/08 00:58:27;;;;;;;4.38;1.77;;;;;;;17.80;59.30;102107.94;5004920;28;20165;-44
2022/08/08 01:01:19;;;;;;;2.70;1.52;;;;;;;17.78;59.51;102106.69;4994130;28;20050;-43
2022/08/08 01:04:28;;;;;;;3.60;1.20;;;;;;;17.66;59.71;102110.38;4995538;28;20050;-46
2022/08/08 01:07:14;;;;;;;7.25;3.05;;;;;;;17.58;60.06;102106.56;5007862;28;20399;-41
2022/08/08 01:10:19;;;;;;;2.00;1.30;;;;;;;17.50;60.24;102107.53;5005160;28;20053;-46
2022/08/08 01:13:13;;;;;;;4.10;1.75;;;;;;;17.46;60.36;102106.63;5000253;28;20053;-47
2022/08/08 01:15:58;;;;;;;5.40;1.80;;;;;;;17.41;60.56;102101.28;4989621;28;20415;-41
2022/08/08 01:18:50;;;;;;;5.93;1.92;;;;;;;17.49;60.32;102100.31;4999079;28;20050;-40
2022/08/08 01:21:39;;;;;;;2.35;1.55;;;;;;;17.51;59.91;102103.56;5007727;28;20038;-46
2022/08/08 01:24:50;;;;;;;3.50;1.65;;;;;;;17.38;60.59;102096.41;5006109;28;20409;-41
2022/08/08 01:27:57;;;;;;;4.30;2.05;;;;;;;17.40;60.51;102096.03;5008305;28;20042;-41
2022/08/08 01:30:58;;;;;;;8.68;1.60;;;;;;;17.26;60.94;102099.25;5008444;28;20491;-41
2022/08/08 01:33:39;;;;;;;7.35;2.17;;;;;;;17.16;61.38;102094.19;5008967;28;20049;-41
2022/08/08 01:36:38;;;;;;;3.47;1.98;;;;;;;17.14;61.47;102104.09;5004638;28;20392;-41
2022/08/08 01:39:29;;;;;;;2.72;1.90;;;;;;;17.12;61.65;102104.47;5010240;28;20112;-42
2022/08/08 01:42:10;;;;;;;6.88;1.80;;;;;;;17.12;61.58;102107.28;5004400;28;20050;-41
2022/08/08 01:44:54;;;;;;;6.03;1.90;;;;;;;17.09;61.70;102113.56;5005756;28;20054;-43
2022/08/08 01:47:37;;;;;;;5.18;2.10;;;;;;;17.02;62.03;102108.56;5007381;28;20391;-42
2022/08/08 01:50:47;;;;;;;4.05;2.10;;;;;;;16.90;62.15;102105.00;5003229;28;20074;-41
2022/08/08 01:53:29;;;;;;;;;;;;;;;16.85;62.02;102108.88;5006739;28;20072;-44
2022/08/08 01:56:41;;;;;;;6.90;1.98;;;;;;;16.79;62.33;102110.28;5003364;28;20405;-41
2022/08/08 01:59:46;;;;;;;2.08;1.70;;;;;;;16.79;62.50;102109.47;5010055;28;20100;-41
2022/08/08 02:02:48;;;;;;;6.13;2.35;;;;;;;16.69;62.68;102107.19;5000461;28;20504;-42
2022/08/08 02:05:21;;;;;;;3.35;2.13;;;;;;;16.67;63.11;102117.91;4987622;28;20344;-46
2022/08/08 02:07:52;;;;;;;6.63;2.10;;;;;;;16.64;63.31;102113.03;4985032;28;20042;-41
2022/08/08 02:10:26;;;;;;;9.57;2.40;;;;;;;16.67;63.20;102109.53;4986223;28;20073;-46
2022/08/08 02:13:31;;;;;;;4.25;1.80;;;;;;;16.58;63.67;102114.44;4986757;28;20522;-45
2022/08/08 02:16:34;;;;;;;4.68;1.90;;;;;;;16.43;63.87;102107.56;4993047;28;20058;-45
2022/08/08 02:19:24;;;;;;;4.43;2.15;;;;;;;16.36;64.50;102099.75;5004295;28;20125;-44
2022/08/08 02:22:31;;;;;;;4.38;2.42;;;;;;;16.46;64.20;102115.25;5001000;28;20050;-42
2022/08/08 02:25:18;;;;;;;5.53;2.28;;;;;;;16.48;64.03;102106.50;5006374;28;20061;-45
2022/08/08 02:28:06;;;;;;;5.72;2.33;;;;;;;16.40;64.47;102103.50;5003151;28;20124;-42
2022/08/08 02:30:48;;;;;;;5.53;2.20;;;;;;;16.34;64.97;102107.69;5005408;28;20148;-41
2022/08/08 02:34:02;;;;;;;6.88;2.45;;;;;;;16.27;65.11;102115.84;5008457;28;20041;-41
2022/08/08 02:36:49;;;;;;;3.78;2.17;;;;;;;16.20;65.12;102110.00;4996516;28;20081;-41
2022/08/08 02:39:35;;;;;;;3.83;2.85;;;;;;;16.20;65.31;102109.22;5004434;28;20070;-41
2022/08/08 02:42:46;;;;;;;7.15;2.15;;;;;;;16.15;65.63;102112.25;4999789;28;20046;-41
2022/08/08 02:45:48;;;;;;;5.88;1.88;;;;;;;16.14;65.77;102111.44;4999353;28;20034;-45
2022/08/08 02:48:55;;;;;;;3.47;2.05;;;;;;;16.08;65.91;102106.41;5008801;28;20137;-41
2022/08/08 02:51:22;;;;;;;6.63;2.10;;;;;;;16.10;65.76;102112.47;5010347;28;20526;-43
2022/08/08 02:54:18;;;;;;;4.82;2.15;;;;;;;16.02;66.11;102108.63;5004661;28;20136;-42
2022/08/08 02:56:58;;;;;;;12.40;4.07;;;;;;;16.05;66.46;102105.13;5002143;28;20488;-41
2022/08/08 02:59:53;;;;;;;6.40;2.22;;;;;;;16.02;66.51;102108.63;5005958;28;20049;-43
2022/08/08 03:02:45;;;;;;;3.40;2.13;;;;;;;15.97;66.72;102111.66;5089051;23;20066;-44
2022/08/08 03:05:16;;;;;;;;;;;;;;;15.90;66.48;102108.63;5027350;28;20065;-45
2022/08/08 03:07:52;;;;;;;5.03;2.10;;;;;;;15.92;66.11;102106.31;5027687;28;19932;-42
2022/08/08 03:10:49;;;;;;;4.82;2.30;;;;;;;15.89;66.62;102103.38;5028219;28;20041;-45
2022/08/08 03:13:28;;;;;;;5.97;2.00;;;;;;;15.84;66.92;102101.66;5026380;28;20129;-41
2022/08/08 03:16:21;;;;;;;8.02;2.95;;;;;;;15.86;66.80;102107.69;5025996;28;20041;-42
2022/08/08 03:19:11;;;;;;;5.60;2.38;;;;;;;15.89;66.74;102104.19;5028647;28;20057;-43
2022/08/08 03:21:43;;;;;;;6.45;2.13;;;;;;;15.86;67.05;102104.91;5025395;28;20057;-43
2022/08/08 03:24:24;;;;;;;10.88;2.30;;;;;;;15.81;67.03;102108.75;5016994;28;20042;-42
2022/08/08 03:26:57;;;;;;;8.40;2.50;;;;;;;15.77;67.46;102112.59;5029012;28;20049;-46
2022/08/08 03:29:34;;;;;;;5.68;2.47;;;;;;;15.73;67.78;102111.63;5026025;28;20144;-42
2022/08/08 03:35:08;;;;;;;2.42;2.10;;;;;;;15.78;67.41;102114.19;5024850;28;20085;-43
2022/08/08 03:37:35;;;;;;;6.80;2.33;;;;;;;15.82;67.54;102112.34;5027212;28;20041;-43
2022/08/08 03:40:23;;;;;;;5.40;2.22;;;;;;;15.77;67.61;102115.38;5027641;28;20390;-42
2022/08/08 03:42:58;;;;;;;7.70;2.38;;;;;;;15.70;67.75;102120.72;5023707;28;20107;-42
2022/08/08 03:45:45;;;;;;;6.68;2.67;;;;;;;15.63;68.12;102124.06;5025790;28;20143;-44
2022/08/08 03:48:32;;;;;;;5.18;3.15;;;;;;;15.60;68.17;102118.34;5034278;28;20029;-41
2022/08/08 03:51:19;;;;;;;7.45;2.17;;;;;;;15.61;68.18;102128.38;5026241;28;20143;-47
2022/08/08 03:54:05;;;;;;;5.30;2.15;;;;;;;15.62;68.10;102128.00;5019452;28;20477;-42
2022/08/08 03:56:34;;;;;;;7.03;2.42;;;;;;;15.63;68.32;102124.06;5024639;28;20075;-44
2022/08/08 03:59:01;;;;;;;6.43;2.35;;;;;;;15.61;68.38;102131.16;5025400;28;20045;-45
2022/08/08 04:01:38;;;;;;;6.03;2.50;;;;;;;15.57;68.71;102133.81;5023440;28;20059;-43
2022/08/08 04:04:25;;;;;;;3.60;2.00;;;;;;;15.53;68.54;102129.28;5027716;28;20056;-44
2022/08/08 04:06:57;;;;;;;7.70;2.45;;;;;;;15.53;68.64;102130.09;5027887;28;20111;-42
2022/08/08 04:09:27;;;;;;;4.75;2.20;;;;;;;15.52;68.95;102133.22;5024949;28;20052;-41
2022/08/08 04:12:14;;;;;;;2.92;2.40;;;;;;;15.48;69.08;102132.28;5021713;28;20107;-42
2022/08/08 04:14:41;;;;;;;9.30;2.35;;;;;;;15.45;69.03;102136.56;5024976;28;20084;-45
2022/08/08 04:17:11;;;;;;;5.43;2.38;;;;;;;15.40;69.24;102144.34;5025159;28;20566;-44
2022/08/08 04:19:58;;;;;;;9.55;2.70;;;;;;;15.34;69.69;102131.75;5026663;28;20056;-45
2022/08/08 04:22:29;;;;;;;7.63;2.92;;;;;;;15.36;69.76;102144.19;5025945;28;20137;-42
2022/08/08 04:24:56;;;;;;;5.63;2.20;;;;;;;15.35;69.74;102141.75;5006817;28;20586;-43
2022/08/08 04:27:23;;;;;;;6.50;2.85;;;;;;;15.32;70.21;102143.28;5007057;28;20095;-42
2022/08/08 04:30:11;;;;;;;11.40;2.90;;;;;;;15.24;70.23;102150.56;4996246;28;20496;-42
2022/08/08 04:32:46;;;;;;;6.45;2.90;;;;;;;15.23;70.32;102153.69;5003411;28;20428;-45
2022/08/08 04:35:17;;;;;;;4.93;2.88;;;;;;;15.25;70.35;102154.16;5012457;28;20491;-42
2022/08/08 04:37:49;;;;;;;4.88;2.72;;;;;;;15.22;70.33;102149.28;5030539;28;20142;-44
2022/08/08 04:40:17;;;;;;;7.82;2.85;;;;;;;15.23;70.46;102154.50;5027985;28;20042;-49
2022/08/08 04:42:45;;;;;;;10.27;3.13;;;;;;;15.21;70.39;102156.81;5026497;28;20088;-41
2022/08/08 04:45:26;;;;;;;8.57;2.75;;;;;;;15.20;70.62;102152.41;5025847;28;20566;-41
2022/08/08 04:47:55;;;;;;;5.53;2.95;;;;;;;15.17;70.59;102161.44;5027394;28;20549;-42
2022/08/08 04:50:22;;;;;;;10.00;2.92;;;;;;;15.15;70.69;102163.78;5025469;28;20051;-43
2022/08/08 04:53:03;;;;;;;4.50;2.22;;;;;;;15.19;70.71;102163.91;5033632;28;20418;-44
2022/08/08 04:55:39;;;;;;;4.18;2.78;;;;;;;15.19;70.75;102159.16;5028879;28;20558;-42
2022/08/08 04:58:20;;;;;;;6.75;2.72;;;;;;;15.19;70.66;102173.09;5028010;28;20477;-43
2022/08/08 05:00:48;;;;;;;6.32;2.88;;;;;;;15.17;70.89;102166.19;5029081;28;20044;-41
2022/08/08 05:03:15;;;;;;;6.05;2.65;;;;;;;15.18;70.64;102163.09;5028823;28;20041;-48
2022/08/08 05:06:02;;;;;;;8.98;2.88;;;;;;;15.27;70.24;102163.81;5028233;28;20045;-42
2022/08/08 05:08:45;;;;;;;6.47;2.90;;;;;;;15.25;70.25;102171.72;5030233;28;20053;-43
2022/08/08 05:11:18;;;;;;;6.50;3.20;;;;;;;15.13;70.49;102168.06;5028857;28;20050;-46
2022/08/08 05:13:52;;;;;;;4.97;2.80;;;;;;;15.01;71.02;102160.44;5031562;28;20041;-46
2022/08/08 05:16:23;;;;;;;7.93;3.13;;;;;;;15.04;71.01;102165.34;5027320;28;20077;-43
2022/08/08 05:19:13;;;;;;;5.22;2.83;;;;;;;15.05;70.77;102175.34;5030617;28;20038;-48
2022/08/08 05:22:00;;;;;;;6.13;2.50;;;;;;;14.98;71.08;102166.72;5029318;28;20033;-41
2022/08/08 05:24:31;;;;;;;4.10;2.42;;;;;;;15.02;71.15;102164.03;5029230;28;20045;-42
2022/08/08 05:26:58;;;;;;;11.00;3.42;;;;;;;15.01;71.02;102163.22;5030314;28;20045;-46
2022/08/08 05:29:25;;;;;;;8.63;3.47;;;;;;;14.97;71.24;102164.25;5027482;28;20410;-42
2022/08/08 05:31:55;;;;;;;3.97;2.33;;;;;;;14.99;71.27;102175.88;5027844;28;20553;-41
2022/08/08 05:34:50;;;;;;;4.80;3.28;;;;;;;14.95;71.44;102174.94;5030220;28;20384;-48
2022/08/08 05:37:27;;;;;;;6.35;3.10;;;;;;;14.92;71.62;102170.88;5026751;28;20406;-42
2022/08/08 05:40:15;;;;;;;5.60;2.83;;;;;;;14.95;71.39;102186.09;5030444;28;20483;-42
2022/08/08 05:42:50;;;;;;;5.53;2.53;;;;;;;14.96;71.53;102191.31;5027843;28;20111;-42
2022/08/08 05:45:17;;;;;;;9.65;3.83;;;;;;;14.96;71.36;102182.94;5029430;28;20045;-42
2022/08/08 05:47:59;;;;;;;5.97;2.85;;;;;;;14.98;71.43;102183.44;5028598;28;20069;-42
2022/08/08 05:50:35;;;;;;;5.80;2.90;;;;;;;15.03;71.21;102188.81;5028448;28;20045;-49
2022/08/08 05:53:02;;;;;;;7.45;3.60;;;;;;;15.02;71.41;102191.94;5036057;28;20069;-42
2022/08/08 05:55:50;;;;;;;11.07;3.92;;;;;;;15.06;71.37;102181.75;5029004;28;20153;-46
2022/08/08 05:58:41;;;;;;;7.43;3.30;;;;;;;15.05;71.36;102191.25;5028720;28;20040;-43
2022/08/08 06:01:26;;;;;;;4.75;3.55;;;;;;;15.05;71.18;102180.94;5027097;28;20046;-43
2022/08/08 06:04:13;;;;;;;5.78;3.35;;;;;;;15.05;71.10;102192.09;5033034;28;20048;-42
2022/08/08 06:06:51;;;;;;;6.60;3.55;;;;;;;15.07;71.25;102194.53;5029505;28;20463;-41
2022/08/08 06:09:23;;;;;;;5.60;3.63;;;;;;;15.11;71.22;102184.31;5029968;28;20136;-47
2022/08/08 06:12:10;;;;;;;4.80;3.20;;;;;;;15.13;71.13;102204.31;5027356;28;20038;-42
2022/08/08 06:14:45;;;;;;;7.35;3.80;;;;;;;15.16;71.01;102201.69;5030010;28;20506;-41
2022/08/08 06:17:15;;;;;;;5.45;3.30;;;;;;;15.19;70.94;102203.78;5028349;28;20128;-42
2022/08/08 06:19:49;;;;;;;9.55;4.20;;;;;;;15.19;71.00;102206.59;5029242;28;20056;-43
2022/08/08 06:22:16;;;;;;;7.47;4.03;;;;;;;15.17;71.22;102205.25;5026539;28;20041;-50
2022/08/08 06:25:01;;;;;;;7.07;3.65;;;;;;;15.15;71.14;102208.41;5028785;28;20451;-50
2022/08/08 06:28:04;;;;;;;7.07;3.55;;;;;;;15.17;71.38;102217.25;5027483;28;20049;-42
2022/08/08 06:30:33;;;;;;;6.45;3.75;;;;;;;15.22;71.23;102207.88;5011115;28;20049;-43
2022/08/08 06:33:05;;;;;;;7.03;3.25;;;;;;;15.27;71.34;102209.63;5035561;28;20148;-46
2022/08/08 06:35:35;;;;;;;8.75;3.78;;;;;;;15.28;71.18;102212.06;5031296;28;20033;-46
2022/08/08 06:38:26;;;;;;;12.27;4.32;;;;;;;15.28;71.27;102217.66;5031006;28;20407;-42
2022/08/08 06:41:03;;;;;;;6.65;3.80;;;;;;;15.31;71.53;102216.97;5030187;28;20050;-42
2022/08/08 06:43:34;;;;;;;7.57;3.42;;;;;;;15.37;71.58;102220.38;5023148;28;20103;-43
2022/08/08 06:46:05;;;;;;;5.10;3.28;;;;;;;15.43;71.64;102219.81;5009980;28;20049;-45
2022/08/08 06:48:38;;;;;;;3.55;3.25;;;;;;;15.45;71.61;102222.25;5009598;28;20053;-42
2022/08/08 06:51:09;;;;;;;7.70;3.10;;;;;;;15.50;71.37;102220.13;5002277;28;20052;-47
2022/08/08 06:53:36;;;;;;;5.28;3.35;;;;;;;15.57;71.38;102227.91;5003379;28;20046;-43
2022/08/08 06:56:07;;;;;;;4.40;3.45;;;;;;;15.58;71.39;102223.97;5017661;28;20080;-45
2022/08/08 06:58:35;;;;;;;8.90;4.40;;;;;;;15.63;71.51;102234.94;5028498;28;20053;-44
2022/08/08 07:01:04;;;;;;;7.10;3.10;;;;;;;15.65;71.41;102225.03;5027597;28;20045;-41
2022/08/08 07:04:03;;;;;;;7.82;3.17;;;;;;;15.62;71.57;102233.31;5027406;28;20037;-42
2022/08/08 07:06:55;;;;;;;7.13;2.47;;;;;;;15.69;71.41;102233.56;5024577;28;20048;-42
2022/08/08 07:09:36;;;;;;;5.13;2.95;;;;;;;15.82;71.29;102238.03;5027109;28;20037;-44
2022/08/08 07:12:24;;;;;;;7.03;3.15;;;;;;;15.90;71.09;102233.50;5030792;28;20041;-43
2022/08/08 07:15:05;;;;;;;4.70;2.60;;;;;;;15.97;71.03;102240.16;5027756;28;20108;-44
2022/08/08 07:17:56;;;;;;;4.63;3.17;;;;;;;16.01;70.85;102235.53;5024563;28;20049;-42
2022/08/08 07:20:46;;;;;;;12.65;2.80;;;;;;;16.04;70.64;102240.41;5027400;28;20043;-42
2022/08/08 07:23:50;;;;;;;5.97;3.65;;;;;;;16.15;70.67;102235.22;5027222;28;20498;-47
2022/08/08 07:26:32;;;;;;;6.75;2.13;;;;;;;16.25;70.42;102243.13;5025228;28;20079;-45
2022/08/08 07:29:03;;;;;;;7.30;2.92;;;;;;;16.32;70.33;102246.16;5036843;28;20144;-43
2022/08/08 07:31:34;;;;;;;;;;;;;;;16.34;70.06;102227.06;5021434;28;20094;-44
2022/08/08 07:34:03;;;;;;;7.53;2.42;;;;;;;16.37;70.06;102227.19;5026161;28;19952;-43
2022/08/08 07:36:36;;;;;;;5.05;2.28;;;;;;;16.49;70.21;102228.34;5028606;28;20488;-40
2022/08/08 07:39:24;;;;;;;5.18;1.70;;;;;;;16.64;69.91;102230.47;5028666;28;20042;-42
2022/08/08 07:42:00;;;;;;;5.10;1.88;;;;;;;16.79;69.82;102233.38;5024438;28;20529;-46
2022/08/08 07:44:34;;;;;;;9.60;2.05;;;;;;;16.90;69.52;102240.13;5026110;28;20050;-50
2022/08/08 07:47:07;;;;;;;5.47;2.00;;;;;;;17.03;69.42;102246.50;5026320;28;20149;-42
2022/08/08 07:49:35;;;;;;;13.88;3.05;;;;;;;17.12;69.40;102247.19;5028788;28;20132;-42
2022/08/08 07:52:09;;;;;;;5.10;1.67;;;;;;;17.24;69.57;102249.13;5028876;28;20046;-42
2022/08/08 07:55:04;;;;;;;5.95;1.77;;;;;;;17.41;69.54;102254.47;5024767;28;20046;-42
2022/08/08 07:57:49;;;;;;;2.83;1.63;;;;;;;17.58;69.77;102243.78;5028850;28;20111;-43
2022/08/08 08:00:20;;;;;;;4.72;2.10;;;;;;;17.71;70.31;102255.78;5029092;28;20037;-42
2022/08/08 08:03:05;;;;;;;7.25;2.00;;;;;;;17.90;70.29;102255.91;5029738;28;20503;-44
2022/08/08 08:05:44;;;;;;;9.25;2.55;;;;;;;18.11;70.63;102247.25;5028296;28;20495;-46
2022/08/08 08:08:18;;;;;;;4.00;2.00;;;;;;;18.33;70.90;102252.25;5024645;28;20081;-42
2022/08/08 08:10:51;;;;;;;6.57;1.55;;;;;;;18.62;70.64;102246.22;5028676;28;20045;-46
2022/08/08 08:13:26;;;;;;;3.00;1.52;;;;;;;19.00;70.37;102253.13;5028801;28;20510;-45
2022/08/08 08:16:27;;;;;;;4.38;1.77;;;;;;;19.48;69.29;102251.81;5028577;28;20040;-42
2022/08/08 08:19:00;;;;;;;4.60;1.88;;;;;;;19.88;68.45;102255.03;5029609;28;20140;-41
2022/08/08 08:21:37;;;;;;;6.30;1.52;;;;;;;20.47;67.13;102255.34;5027893;28;20136;-40
2022/08/08 08:24:25;;;;;;;4.28;1.70;;;;;;;21.50;64.59;102249.25;5013896;28;20052;-39
2022/08/08 08:26:58;;;;;;;4.05;1.48;;;;;;;22.36;61.41;102252.66;5031620;28;20055;-41
2022/08/08 08:29:26;;;;;;;3.83;1.95;;;;;;;23.28;58.33;102250.50;5032482;28;20144;-39
2022/08/08 08:31:55;;;;;;;3.90;1.58;;;;;;;24.12;55.58;102249.22;5032422;28;20049;-40
2022/08/08 08:34:24;;;;;;;5.32;1.52;;;;;;;24.89;52.54;102253.31;5028274;28;20049;-40
2022/08/08 08:37:01;;;;;;;4.90;1.45;;;;;;;25.48;50.70;102251.56;5033432;28;20048;-40
2022/08/08 08:39:36;;;;;;;10.18;1.45;;;;;;;26.27;48.56;102251.53;5032450;28;20041;-34
2022/08/08 08:42:24;;;;;;;3.92;1.50;;;;;;;26.96;46.31;102250.53;5019818;28;20061;-36
2022/08/08 08:45:05;;;;;;;6.32;1.42;;;;;;;27.63;44.41;102261.19;5032445;28;20045;-37
2022/08/08 08:47:52;;;;;;;4.85;1.35;;;;;;;28.15;43.20;102256.78;5025124;28;20484;-40
2022/08/08 08:50:22;;;;;;;4.43;1.27;;;;;;;28.47;42.17;102261.16;5029935;28;20107;-37
2022/08/08 08:53:08;;;;;;;4.43;1.00;;;;;;;28.69;41.46;102257.56;5035245;28;20055;-44
2022/08/08 08:55:56;;;;;;;3.88;1.08;;;;;;;28.95;40.78;102258.72;5022743;28;20067;-41
2022/08/08 08:58:41;;;;;;;5.05;1.13;;;;;;;29.20;40.13;102258.25;5031962;28;20514;-43
2022/08/08 09:01:22;;;;;;;6.97;1.90;;;;;;;29.50;39.21;102258.06;5034626;28;20053;-43
2022/08/08 09:03:50;;;;;;;4.38;1.00;;;;;;;29.65;37.78;102258.59;5034708;28;20562;-41
2022/08/08 09:06:20;;;;;;;4.00;1.25;;;;;;;29.80;37.34;102252.16;5034593;28;20049;-47
2022/08/08 09:09:09;;;;;;;5.43;1.52;;;;;;;29.78;37.35;102253.81;5017806;28;20138;-42
2022/08/08 09:12:00;;;;;;;8.90;2.00;;;;;;;29.88;37.31;102250.75;5027605;28;20041;-45
2022/08/08 09:14:34;;;;;;;5.78;1.40;;;;;;;30.15;36.63;102247.66;5019533;28;20045;-45
2022/08/08 09:17:08;;;;;;;5.82;1.20;;;;;;;30.39;36.17;102246.28;5030183;28;20033;-51
2022/08/08 09:19:44;;;;;;;5.10;1.38;;;;;;;30.50;35.50;102241.09;5051502;28;20040;-44
2022/08/08 09:22:33;;;;;;;4.95;0.90;;;;;;;30.56;35.67;102236.44;5051645;28;20063;-50
2022/08/08 09:25:01;;;;;;;6.40;1.23;;;;;;;30.76;35.11;102242.06;5051703;28;20186;-45
2022/08/08 09:27:29;;;;;;;9.00;1.92;;;;;;;30.81;34.98;102240.72;5056858;28;20037;-45
2022/08/08 09:30:17;;;;;;;3.60;1.00;;;;;;;30.83;34.68;102236.16;5051611;28;20048;-45
2022/08/08 09:32:50;;;;;;;4.97;1.10;;;;;;;30.96;34.40;102231.31;5049037;28;20179;-43
2022/08/08 09:35:41;;;;;;;2.95;0.82;;;;;;;30.97;33.95;102232.13;5051506;28;20125;-46
2022/08/08 09:38:44;;;;;;;4.15;1.52;;;;;;;30.96;34.06;102221.94;5050938;28;20044;-48
2022/08/08 09:41:41;;;;;;;2.75;0.85;;;;;;;30.86;34.00;102217.28;5046674;28;20044;-49
2022/08/08 09:44:40;;;;;;;4.90;1.45;;;;;;;30.96;34.05;102221.94;5051650;28;20044;-45
2022/08/08 09:47:08;;;;;;;8.85;1.83;;;;;;;30.92;33.58;102213.47;5051629;28;20135;-44
2022/08/08 09:49:58;;;;;;;5.65;0.93;;;;;;;30.00;34.80;102212.09;5051478;28;20045;-43
2022/08/08 09:52:34;;;;;;;3.75;1.15;;;;;;;30.04;35.13;102205.06;5050868;28;20056;-40
2022/08/08 09:55:21;;;;;;;4.38;1.17;;;;;;;30.45;33.99;102210.19;5051487;28;20041;-40
2022/08/08 09:58:17;;;;;;;6.38;1.35;;;;;;;30.79;33.21;102214.63;5052305;28;20041;-44
2022/08/08 10:00:55;;;;;;;5.15;1.30;;;;;;;31.04;32.84;102211.91;5056272;28;20076;-43
2022/08/08 10:03:26;;;;;;;3.60;0.98;;;;;;;31.14;32.74;102205.88;5054132;28;20560;-46
2022/08/08 10:05:57;;;;;;;4.50;1.00;;;;;;;31.28;32.10;102198.94;5050922;28;20406;-40
2022/08/08 10:08:24;;;;;;;4.25;0.95;;;;;;;31.08;32.18;102207.69;5050699;28;20045;-44
2022/08/08 10:10:57;;;;;;;;;;;;;;;30.73;33.04;102198.00;5050448;28;20041;-41
2022/08/08 10:13:30;;;;;;;4.32;1.15;;;;;;;30.76;32.67;102216.34;5049449;28;19929;-41
2022/08/08 10:16:04;;;;;;;4.43;1.25;;;;;;;30.73;32.33;102206.59;5050595;28;20049;-41
2022/08/08 10:18:34;;;;;;;2.95;1.05;;;;;;;30.76;32.05;102197.09;5060163;28;20060;-45
2022/08/08 10:21:03;;;;;;;3.53;1.10;;;;;;;30.76;31.79;102199.94;5050437;28;20098;-41
2022/08/08 10:23:52;;;;;;;1.75;1.23;;;;;;;30.73;31.02;102192.28;5050575;28;20057;-41
2022/08/08 10:26:30;;;;;;;3.70;1.00;;;;;;;30.68;30.87;102189.19;5049830;28;20132;-47
2022/08/08 10:29:32;;;;;;;3.05;0.80;;;;;;;30.73;30.52;102195.16;5050162;28;20061;-42
2022/08/08 10:32:34;;;;;;;3.80;1.38;;;;;;;30.74;30.63;102198.78;5050087;28;20029;-43
2022/08/08 10:35:13;;;;;;;5.28;1.33;;;;;;;30.74;30.90;102191.03;5048829;28;20425;-41
2022/08/08 10:38:03;;;;;;;3.08;0.55;;;;;;;30.75;31.08;102198.38;5049996;28;20048;-45
2022/08/08 10:40:31;;;;;;;;;;;;;;;30.52;31.51;102194.91;5045058;28;20045;-42
2022/08/08 10:43:03;;;;;;;4.07;1.13;;;;;;;30.33;31.23;102202.31;5049497;28;20293;-42
2022/08/08 10:45:45;;;;;;;3.72;0.70;;;;;;;29.98;31.32;102206.03;5050136;28;20052;-41
2022/08/08 10:48:31;;;;;;;3.45;0.73;;;;;;;29.62;31.38;102202.38;5049715;28;20501;-41
2022/08/08 10:51:11;;;;;;;4.88;1.30;;;;;;;29.25;32.30;102192.16;5048811;28;20402;-41
2022/08/08 10:53:40;;;;;;;2.00;0.50;;;;;;;28.92;32.32;102191.97;5048414;28;20033;-41
2022/08/08 10:56:30;;;;;;;3.47;0.75;;;;;;;28.74;33.02;102200.06;5049638;28;20445;-44
2022/08/08 10:59:08;;;;;;;2.45;0.70;;;;;;;28.47;32.71;102189.94;5050017;28;20049;-43
2022/08/08 11:01:45;;;;;;;5.13;0.88;;;;;;;28.15;32.67;102197.00;5049555;28;20503;-41
2022/08/08 11:04:15;;;;;;;2.42;0.63;;;;;;;27.72;33.02;102198.88;5049745;28;20045;-40
2022/08/08 11:06:42;;;;;;;4.43;0.75;;;;;;;27.42;34.22;102198.84;5049444;28;20048;-42
2022/08/08 11:09:15;;;;;;;1.40;0.47;;;;;;;27.10;34.45;102188.66;5057934;28;20095;-41
2022/08/08 11:11:49;;;;;;;2.97;0.50;;;;;;;26.70;34.19;102191.50;5051966;28;20045;-41
2022/08/08 11:14:48;;;;;;;2.47;0.82;;;;;;;26.18;34.16;102182.25;5049583;28;20045;-40
2022/08/08 11:17:20;;;;;;;4.28;1.60;;;;;;;25.95;34.63;102185.63;5049424;28;20502;-41
2022/08/08 11:20:09;;;;;;;0.52;0.22;;;;;;;25.85;33.58;102180.84;5049235;28;20132;-47
2022/08/08 11:22:39;;;;;;;2.33;0.50;;;;;;;25.81;33.25;102186.56;5048113;28;20094;-39
2022/08/08 11:25:07;;;;;;;2.10;0.35;;;;;;;25.69;32.99;102187.03;5033175;28;20511;-44
2022/08/08 11:27:45;;;;;;;2.65;0.52;;;;;;;25.48;32.32;102198.47;5017177;28;20056;-40
2022/08/08 11:30:14;;;;;;;3.35;0.63;;;;;;;25.35;33.19;102188.78;5018037;28;20037;-43
2022/08/08 11:32:55;;;;;;;1.27;0.40;;;;;;;25.29;34.25;102201.78;5017465;28;20376;-48
2022/08/08 11:35:22;;;;;;;;;;;;;;;25.19;34.81;102194.13;5023254;28;20033;-41
2022/08/08 11:38:08;;;;;;;1.42;0.50;;;;;;;24.97;35.31;102186.88;5051663;28;19924;-45
2022/08/08 11:40:55;;;;;;;2.05;0.80;;;;;;;24.85;36.06;102182.50;5043758;28;20410;-42
2022/08/08 11:43:27;;;;;;;0.57;0.40;;;;;;;24.88;35.93;102195.03;5048868;28;20045;-43
2022/08/08 11:46:07;;;;;;;4.30;0.70;;;;;;;24.80;36.53;102191.41;5048815;28;20049;-44
2022/08/08 11:48:45;;;;;;;6.38;1.33;;;;;;;24.69;37.66;102187.75;5048830;28;20143;-40
2022/08/08 11:51:19;;;;;;;3.15;0.82;;;;;;;24.63;37.81;102190.19;5048556;28;20114;-40
2022/08/08 11:54:08;;;;;;;1.48;0.40;;;;;;;24.51;38.05;102201.94;5048768;28;20037;-41
2022/08/08 11:56:55;;;;;;;2.22;0.60;;;;;;;24.68;38.48;102191.78;5048599;28;20044;-44
2022/08/08 11:59:32;;;;;;;3.20;1.15;;;;;;;24.83;37.92;102198.28;5050348;28;20053;-42
2022/08/08 12:02:21;;;;;;;2.25;0.60;;;;;;;24.72;37.79;102201.09;5048515;28;20203;-43
2022/08/08 12:05:05;;;;;;;4.57;1.20;;;;;;;24.83;38.04;102199.88;5048676;28;20049;-43
2022/08/08 12:07:54;;;;;;;3.38;1.58;;;;;;;24.91;37.93;102194.22;5048786;28;20140;-42
2022/08/08 12:10:29;;;;;;;1.90;0.70;;;;;;;25.03;38.11;102190.94;5048652;28;20491;-44
2022/08/08 12:13:05;;;;;;;3.53;1.13;;;;;;;25.07;37.51;102180.41;5048842;28;20521;-44
2022/08/08 12:15:37;;;;;;;4.20;0.95;;;;;;;25.03;38.36;102182.44;5048391;28;20178;-44
2022/08/08 12:18:23;;;;;;;3.55;1.50;;;;;;;25.14;39.08;102188.88;5051808;28;20061;-46
2022/08/08 12:20:56;;;;;;;2.00;0.68;;;;;;;25.04;39.73;102193.38;5048497;28;20045;-42
2022/08/08 12:23:33;;;;;;;2.63;0.98;;;;;;;24.87;40.25;102187.72;5048458;28;20068;-51
2022/08/08 12:26:23;;;;;;;3.53;1.27;;;;;;;24.94;40.82;102188.53;5048370;28;20049;-45
2022/08/08 12:29:26;;;;;;;7.13;0.77;;;;;;;25.18;41.05;102189.66;5048393;28;20136;-43
2022/08/08 12:32:15;;;;;;;5.72;0.90;;;;;;;25.14;40.88;102183.22;5043067;28;20095;-41
2022/08/08 12:34:55;;;;;;;3.28;0.93;;;;;;;25.20;41.27;102190.06;5046455;28;20049;-46
2022/08/08 12:37:31;;;;;;;3.38;1.33;;;;;;;25.34;41.06;102175.81;5048783;28;20421;-40
2022/08/08 12:40:15;;;;;;;3.92;1.63;;;;;;;25.36;41.03;102171.34;5046213;28;20527;-46